createdAt,value
2023-03-30T00:01:42.961Z,5.38
2023-03-30T00:03:50.037Z,4.20
2023-03-30T00:05:56.878Z,4.68
2023-03-30T00:08:02.668Z,4.65
2023-03-30T00:10:08.484Z,3.50
2023-03-30T00:12:15.592Z,4.63
2023-03-30T00:14:22.970Z,5.13
2023-03-30T00:16:30.612Z,4.93
2023-03-30T00:18:38.792Z,2.80
2023-03-30T00:20:45.282Z,7.10
2023-03-30T00:22:51.186Z,5.10
2023-03-30T00:24:56.238Z,3.83
2023-03-30T00:29:05.750Z,5.07
2023-03-30T00:31:10.948Z,5.20
2023-03-30T00:35:26.772Z,2.70
2023-03-30T00:37:32.634Z,5.22
2023-03-30T00:39:37.533Z,4.35
2023-03-30T00:41:42.702Z,4.00
2023-03-30T00:46:05.429Z,4.65
2023-03-30T00:48:15.568Z,4.65
2023-03-30T00:50:27.558Z,5.57
2023-03-30T00:52:33.509Z,4.82
2023-03-30T00:54:39.728Z,3.90
2023-03-30T00:56:45.611Z,3.45
2023-03-30T00:58:51.196Z,3.92
2023-03-30T01:00:58.430Z,3.28
2023-03-30T01:03:07.672Z,4.20
2023-03-30T01:05:13.984Z,3.63
2023-03-30T01:07:25.007Z,4.15
2023-03-30T01:09:30.030Z,5.65
2023-03-30T01:11:35.082Z,4.28
2023-03-30T01:13:45.629Z,4.68
2023-03-30T01:16:05.744Z,4.65
2023-03-30T01:18:30.715Z,3.33
2023-03-30T01:21:06.205Z,5.03
2023-03-30T01:23:43.657Z,4.05
2023-03-30T01:26:14.768Z,4.50
2023-03-30T01:28:37.998Z,3.75
2023-03-30T01:31:06.521Z,4.18
2023-03-30T01:33:36.995Z,3.75
2023-03-30T01:36:23.773Z,7.70
2023-03-30T01:38:59.943Z,5.93
2023-03-30T01:41:14.396Z,3.72
2023-03-30T01:43:23.251Z,5.15
2023-03-30T01:45:40.544Z,6.47
2023-03-30T01:47:56.053Z,5.43
2023-03-30T01:50:04.773Z,2.90
2023-03-30T01:52:16.257Z,4.20
2023-03-30T01:54:25.120Z,3.20
2023-03-30T01:56:37.246Z,3.20
2023-03-30T01:58:47.574Z,4.18
2023-03-30T02:00:54.159Z,3.67
2023-03-30T02:03:05.797Z,5.40
2023-03-30T02:05:18.130Z,3.25
2023-03-30T02:07:27.473Z,5.35
2023-03-30T02:09:33.282Z,5.60
2023-03-30T02:11:44.001Z,3.08
2023-03-30T02:13:51.278Z,4.65
2023-03-30T02:16:00.730Z,3.40
2023-03-30T02:18:06.024Z,3.78
2023-03-30T02:20:12.910Z,4.35
2023-03-30T02:22:19.080Z,6.07
2023-03-30T02:24:28.989Z,3.28
2023-03-30T02:26:37.128Z,3.58
2023-03-30T02:28:44.762Z,6.65
2023-03-30T02:30:50.376Z,4.78
2023-03-30T02:32:59.206Z,4.70
2023-03-30T02:35:19.037Z,6.55
2023-03-30T02:37:56.991Z,3.80
2023-03-30T02:40:18.506Z,4.60
2023-03-30T02:42:45.611Z,9.95
2023-03-30T02:45:03.134Z,5.72
2023-03-30T02:47:12.001Z,4.45
2023-03-30T02:49:21.483Z,7.13
2023-03-30T02:51:42.967Z,7.03
2023-03-30T02:54:01.466Z,6.30
2023-03-30T02:56:31.600Z,5.43
2023-03-30T02:58:44.148Z,5.20
2023-03-30T03:01:03.636Z,6.15
2023-03-30T03:03:29.020Z,10.02
2023-03-30T03:05:35.791Z,6.70
2023-03-30T03:07:52.762Z,5.53
2023-03-30T03:09:57.697Z,5.85
2023-03-30T03:12:02.689Z,6.20
2023-03-30T03:14:13.868Z,7.40
2023-03-30T03:16:21.869Z,6.28
2023-03-30T03:18:46.215Z,8.68
2023-03-30T03:20:51.312Z,7.15
2023-03-30T03:22:58.323Z,6.45
2023-03-30T03:25:05.265Z,5.20
2023-03-30T03:29:53.602Z,10.95
2023-03-30T03:32:01.290Z,13.00
2023-03-30T03:34:11.466Z,10.15
2023-03-30T03:36:32.721Z,12.10
2023-03-30T03:38:37.640Z,10.07
2023-03-30T03:40:43.696Z,7.47
2023-03-30T03:44:53.578Z,9.02
2023-03-30T03:47:01.390Z,9.43
2023-03-30T03:49:06.280Z,8.00
2023-03-30T03:51:12.587Z,7.00
2023-03-30T03:53:17.702Z,8.48
2023-03-30T03:55:23.883Z,9.68
2023-03-30T03:57:30.156Z,8.05
2023-03-30T04:01:39.957Z,8.52
2023-03-30T04:03:48.995Z,8.18
2023-03-30T04:05:54.679Z,10.80
2023-03-30T04:07:59.657Z,9.23
2023-03-30T04:10:05.167Z,11.15
2023-03-30T04:12:23.969Z,10.10
2023-03-30T04:14:47.119Z,8.23
2023-03-30T04:16:58.081Z,11.48
2023-03-30T04:19:42.222Z,9.55
2023-03-30T04:22:02.105Z,11.48
2023-03-30T04:24:36.050Z,9.88
2023-03-30T04:27:09.912Z,12.18
2023-03-30T04:29:25.702Z,13.68
2023-03-30T04:31:51.074Z,10.20
2023-03-30T04:34:09.663Z,12.00
2023-03-30T04:36:31.711Z,12.18
2023-03-30T04:38:45.298Z,9.15
2023-03-30T04:41:26.311Z,11.77
2023-03-30T04:43:52.552Z,10.70
2023-03-30T04:46:11.045Z,14.07
2023-03-30T04:48:35.333Z,15.68
2023-03-30T04:50:54.379Z,14.55
2023-03-30T04:53:25.268Z,10.05
2023-03-30T04:55:59.108Z,14.80
2023-03-30T04:58:39.128Z,14.35
2023-03-30T05:01:03.627Z,13.93
2023-03-30T05:05:45.276Z,10.27
2023-03-30T05:08:19.221Z,9.68
2023-03-30T05:10:45.776Z,14.98
2023-03-30T05:13:08.362Z,13.25
2023-03-30T05:15:31.745Z,12.10
2023-03-30T05:18:03.732Z,8.85
2023-03-30T05:20:38.152Z,13.70
2023-03-30T05:22:57.324Z,11.10
2023-03-30T05:25:34.458Z,9.35
2023-03-30T05:28:05.005Z,13.68
2023-03-30T05:30:28.184Z,10.32
2023-03-30T05:32:59.253Z,12.13
2023-03-30T05:35:29.402Z,11.18
2023-03-30T05:37:57.267Z,10.18
2023-03-30T05:40:02.301Z,10.35
2023-03-30T05:42:20.280Z,9.43
2023-03-30T05:44:50.687Z,10.73
2023-03-30T05:47:14.045Z,13.10
2023-03-30T05:49:28.305Z,13.65
2023-03-30T05:51:53.887Z,9.18
2023-03-30T05:54:09.526Z,12.68
2023-03-30T05:56:35.778Z,12.30
2023-03-30T05:58:56.082Z,12.50
2023-03-30T06:01:28.881Z,12.07
2023-03-30T06:03:36.912Z,16.30
2023-03-30T06:05:43.891Z,15.40
2023-03-30T06:07:50.038Z,14.23
2023-03-30T06:09:55.010Z,17.55
2023-03-30T06:12:04.740Z,14.50
2023-03-30T06:14:10.817Z,15.95
2023-03-30T06:16:17.161Z,16.92
2023-03-30T06:18:25.360Z,13.82
2023-03-30T06:20:39.024Z,16.30
2023-03-30T06:24:54.918Z,11.57
2023-03-30T06:27:00.030Z,17.80
2023-03-30T06:31:13.960Z,12.30
2023-03-30T06:33:21.269Z,13.07
2023-03-30T06:35:38.123Z,12.57
2023-03-30T06:37:43.362Z,13.40
2023-03-30T06:39:48.852Z,17.17
2023-03-30T06:41:53.940Z,21.02
2023-03-30T06:44:18.293Z,16.60
2023-03-30T06:46:25.217Z,16.25
2023-03-30T06:48:33.218Z,16.08
2023-03-30T06:51:07.320Z,20.05
2023-03-30T06:53:13.693Z,13.43
2023-03-30T06:55:21.822Z,20.17
2023-03-30T06:57:26.980Z,15.10
2023-03-30T06:59:34.571Z,14.98
2023-03-30T07:02:06.622Z,17.88
2023-03-30T07:04:30.057Z,15.00
2023-03-30T07:07:04.128Z,16.05
2023-03-30T07:09:09.065Z,15.93
2023-03-30T07:11:14.009Z,16.35
2023-03-30T07:13:21.951Z,21.75
2023-03-30T07:15:29.009Z,17.63
2023-03-30T07:17:34.885Z,14.50
2023-03-30T07:19:39.781Z,19.17
2023-03-30T07:21:45.137Z,19.02
2023-03-30T07:23:56.531Z,15.23
2023-03-30T07:26:14.378Z,14.10
2023-03-30T07:28:28.127Z,20.42
2023-03-30T07:30:33.355Z,15.30
2023-03-30T07:32:43.132Z,21.88
2023-03-30T07:34:49.045Z,16.40
2023-03-30T07:36:55.004Z,13.68
2023-03-30T07:39:08.395Z,12.43
2023-03-30T07:41:20.047Z,17.08
2023-03-30T07:43:28.990Z,15.18
2023-03-30T07:45:35.243Z,20.52
2023-03-30T07:47:41.049Z,14.93
2023-03-30T07:51:51.935Z,13.30
2023-03-30T07:54:01.554Z,15.07
2023-03-30T07:56:21.421Z,15.68
2023-03-30T07:58:29.544Z,19.35
2023-03-30T08:00:34.614Z,13.20
2023-03-30T08:02:58.474Z,12.65
2023-03-30T08:05:03.898Z,15.20
2023-03-30T08:07:22.474Z,20.20
2023-03-30T08:09:33.720Z,19.02
2023-03-30T08:11:41.989Z,18.67
2023-03-30T08:13:47.639Z,17.67
2023-03-30T08:15:54.551Z,15.77
2023-03-30T08:18:04.420Z,16.70
2023-03-30T08:20:13.283Z,13.55
2023-03-30T08:22:20.551Z,12.90
2023-03-30T08:24:25.751Z,27.10
2023-03-30T08:26:31.288Z,21.25
2023-03-30T08:28:41.258Z,24.00
2023-03-30T08:30:46.330Z,21.15
2023-03-30T08:32:52.144Z,34.88
2023-03-30T08:34:57.156Z,22.33
2023-03-30T08:37:02.120Z,18.17
2023-03-30T08:39:07.607Z,15.65
2023-03-30T08:41:44.269Z,21.40
2023-03-30T08:46:02.524Z,22.08
2023-03-30T08:48:09.198Z,23.50
2023-03-30T08:50:22.011Z,19.13
2023-03-30T08:52:28.382Z,26.38
2023-03-30T08:54:36.393Z,17.90
2023-03-30T08:56:45.577Z,17.08
2023-03-30T08:59:04.940Z,16.85
2023-03-30T09:01:17.276Z,16.10
2023-03-30T09:03:31.070Z,19.95
2023-03-30T09:05:40.607Z,15.75
2023-03-30T09:07:50.965Z,13.27
2023-03-30T09:09:56.589Z,15.88
2023-03-30T09:12:08.818Z,10.98
2023-03-30T09:14:23.340Z,13.35
2023-03-30T09:16:38.807Z,12.25
2023-03-30T09:18:46.501Z,13.93
2023-03-30T09:20:54.620Z,11.38
2023-03-30T09:23:03.764Z,11.55
2023-03-30T09:25:17.496Z,19.42
2023-03-30T09:27:30.553Z,15.50
2023-03-30T09:29:44.514Z,15.82
2023-03-30T09:31:54.716Z,13.75
2023-03-30T09:34:08.520Z,14.32
2023-03-30T09:36:18.541Z,19.08
2023-03-30T09:38:23.585Z,14.73
2023-03-30T09:42:49.766Z,15.50
2023-03-30T09:47:05.068Z,20.10
2023-03-30T09:49:20.088Z,12.35
2023-03-30T09:51:29.155Z,13.40
2023-03-30T09:53:46.204Z,22.63
2023-03-30T09:56:04.565Z,13.70
2023-03-30T09:58:22.599Z,19.13
2023-03-30T10:00:34.242Z,21.70
2023-03-30T10:02:39.277Z,22.92
2023-03-30T10:07:12.955Z,16.27
2023-03-30T10:09:26.903Z,12.68
2023-03-30T10:11:39.640Z,15.98
2023-03-30T10:13:46.373Z,25.23
2023-03-30T10:15:56.915Z,19.17
2023-03-30T10:18:05.623Z,16.95
2023-03-30T10:20:39.072Z,12.52
2023-03-30T10:22:52.390Z,19.52
2023-03-30T10:24:59.606Z,13.75
2023-03-30T10:27:07.416Z,15.77
2023-03-30T10:29:16.515Z,14.65
2023-03-30T10:31:28.265Z,18.48
2023-03-30T10:33:34.550Z,20.33
2023-03-30T10:35:41.405Z,18.45
2023-03-30T10:37:49.300Z,18.63
2023-03-30T10:39:56.277Z,13.48
2023-03-30T10:42:04.468Z,10.65
2023-03-30T10:44:20.996Z,11.88
2023-03-30T10:46:28.766Z,18.50
2023-03-30T10:48:44.452Z,15.45
2023-03-30T10:53:08.861Z,13.60
2023-03-30T10:55:20.746Z,15.50
2023-03-30T10:57:33.865Z,17.75
2023-03-30T10:59:55.913Z,18.58
2023-03-30T11:02:42.274Z,15.15
2023-03-30T11:04:50.527Z,12.90
2023-03-30T11:07:00.069Z,14.32
2023-03-30T11:09:07.738Z,12.50
2023-03-30T11:11:17.494Z,11.80
2023-03-30T11:13:26.630Z,11.00
2023-03-30T11:15:36.220Z,11.57
2023-03-30T11:17:51.320Z,11.60
2023-03-30T11:20:00.395Z,8.40
2023-03-30T11:22:13.169Z,10.32
2023-03-30T11:24:23.023Z,9.63
2023-03-30T11:26:37.238Z,12.20
2023-03-30T11:29:05.630Z,7.55
2023-03-30T11:31:21.907Z,6.25
2023-03-30T11:33:36.440Z,9.48
2023-03-30T11:35:46.524Z,9.02
2023-03-30T11:37:57.464Z,6.40
2023-03-30T11:40:12.085Z,6.63
2023-03-30T11:42:23.286Z,5.63
2023-03-30T11:44:28.286Z,7.40
2023-03-30T11:46:43.734Z,7.47
2023-03-30T11:49:14.328Z,5.50
2023-03-30T11:51:33.912Z,4.72
2023-03-30T11:53:46.887Z,6.55
2023-03-30T11:56:05.851Z,6.97
2023-03-30T11:58:22.288Z,6.90
2023-03-30T12:00:41.460Z,4.75
2023-03-30T12:02:54.007Z,5.30
2023-03-30T12:05:08.831Z,4.13
2023-03-30T12:07:25.672Z,8.40
2023-03-30T12:09:35.254Z,5.10
2023-03-30T12:11:44.563Z,3.85
2023-03-30T12:13:51.689Z,4.60
2023-03-30T12:16:03.832Z,5.38
2023-03-30T12:18:21.370Z,7.03
2023-03-30T12:20:39.373Z,4.50
2023-03-30T12:22:50.767Z,3.30
2023-03-30T12:25:02.890Z,5.97
2023-03-30T12:27:09.128Z,4.43
2023-03-30T12:31:26.756Z,4.57
2023-03-30T12:33:37.465Z,5.07
2023-03-30T12:35:56.690Z,5.65
2023-03-30T12:38:01.874Z,3.78
2023-03-30T12:42:34.857Z,5.55
2023-03-30T12:44:56.548Z,4.78
2023-03-30T12:47:19.039Z,5.90
2023-03-30T12:49:33.535Z,7.03
2023-03-30T12:51:55.853Z,5.30
2023-03-30T12:54:33.294Z,4.45
2023-03-30T12:56:42.111Z,4.15
2023-03-30T12:59:05.855Z,7.93
2023-03-30T13:01:26.027Z,7.63
2023-03-30T13:03:40.390Z,9.98
2023-03-30T13:05:47.216Z,6.95
2023-03-30T13:07:57.276Z,7.22
2023-03-30T13:10:06.245Z,5.82
2023-03-30T13:12:42.167Z,7.35
2023-03-30T13:14:49.101Z,5.50
2023-03-30T13:17:14.383Z,8.25
2023-03-30T13:19:28.106Z,8.53
2023-03-30T13:21:49.997Z,8.45
2023-03-30T13:24:23.664Z,6.40
2023-03-30T13:26:35.027Z,4.55
2023-03-30T13:28:57.842Z,3.63
2023-03-30T13:31:12.647Z,5.90
2023-03-30T13:33:21.996Z,6.83
2023-03-30T13:35:40.908Z,6.30
2023-03-30T13:38:01.622Z,6.15
2023-03-30T13:40:30.801Z,6.47
2023-03-30T13:42:55.166Z,5.50
2023-03-30T13:45:05.655Z,5.15
2023-03-30T13:47:26.374Z,4.93
2023-03-30T13:49:42.569Z,3.92
2023-03-30T13:51:49.436Z,5.90
2023-03-30T13:53:58.594Z,5.68
2023-03-30T13:56:10.654Z,4.75
2023-03-30T13:58:19.068Z,10.85
2023-03-30T14:00:40.269Z,5.25
2023-03-30T14:02:45.181Z,6.40
2023-03-30T14:04:50.740Z,3.53
2023-03-30T14:06:58.640Z,5.78
2023-03-30T14:09:14.019Z,3.97
2023-03-30T14:11:24.703Z,6.32
2023-03-30T14:13:30.817Z,9.43
2023-03-30T14:15:38.903Z,9.95
2023-03-30T14:17:44.262Z,8.80
2023-03-30T14:20:01.424Z,4.28
2023-03-30T14:22:13.037Z,8.45
2023-03-30T14:24:20.244Z,7.03
2023-03-30T14:26:29.965Z,7.18
2023-03-30T14:28:39.294Z,7.72
2023-03-30T14:30:52.298Z,4.78
2023-03-30T14:33:11.504Z,6.25
2023-03-30T14:35:19.620Z,4.53
2023-03-30T14:37:28.521Z,5.25
2023-03-30T14:39:35.793Z,4.03
2023-03-30T14:41:43.590Z,6.18
2023-03-30T14:43:55.904Z,7.78
2023-03-30T14:46:05.723Z,7.35
2023-03-30T14:48:16.573Z,8.95
2023-03-30T14:50:22.241Z,7.00
2023-03-30T14:52:31.279Z,5.57
2023-03-30T14:54:37.514Z,4.82
2023-03-30T14:56:47.364Z,4.35
2023-03-30T14:58:54.530Z,5.88
2023-03-30T15:01:01.570Z,6.03
2023-03-30T15:03:16.834Z,4.88
2023-03-30T15:05:31.439Z,5.53
2023-03-30T15:07:37.134Z,4.20
2023-03-30T15:09:42.276Z,5.55
2023-03-30T15:13:58.990Z,5.22
2023-03-30T15:16:04.390Z,4.07
2023-03-30T15:18:13.898Z,6.22
2023-03-30T15:20:20.274Z,3.58
2023-03-30T15:22:29.994Z,4.50
2023-03-30T15:24:37.622Z,4.03
2023-03-30T15:26:47.875Z,5.50
2023-03-30T15:29:00.877Z,4.70
2023-03-30T15:31:08.708Z,4.20
2023-03-30T15:33:23.975Z,4.70
2023-03-30T15:35:34.210Z,6.05
2023-03-30T15:37:39.525Z,4.45
2023-03-30T15:39:51.915Z,5.13
2023-03-30T15:42:05.524Z,7.05
2023-03-30T15:44:22.196Z,4.00
2023-03-30T15:46:28.286Z,7.35
2023-03-30T15:48:43.146Z,7.70
2023-03-30T15:50:52.408Z,2.63
2023-03-30T15:53:03.769Z,6.53
2023-03-30T15:55:13.776Z,4.78
2023-03-30T15:57:25.293Z,3.83
2023-03-30T15:59:35.488Z,4.93
2023-03-30T16:01:46.727Z,4.38
2023-03-30T16:03:56.790Z,6.32
2023-03-30T16:06:04.159Z,3.53
2023-03-30T16:08:09.321Z,4.90
2023-03-30T16:12:27.661Z,4.60
2023-03-30T16:14:35.902Z,5.63
2023-03-30T16:16:46.586Z,5.53
2023-03-30T16:18:52.996Z,4.80
2023-03-30T16:20:58.031Z,6.00
2023-03-30T16:23:08.652Z,5.90
2023-03-30T16:25:17.084Z,3.15
2023-03-30T16:27:24.744Z,5.95
2023-03-30T16:29:29.615Z,3.72
2023-03-30T16:31:37.662Z,3.08
2023-03-30T16:33:42.702Z,8.25
2023-03-30T16:35:47.754Z,4.32
2023-03-30T16:37:52.717Z,3.47
2023-03-30T16:39:57.669Z,5.32
2023-03-30T16:42:02.645Z,5.07
2023-03-30T16:44:07.605Z,6.18
2023-03-30T16:46:18.094Z,6.72
2023-03-30T16:48:27.180Z,4.63
2023-03-30T16:50:37.583Z,4.93
2023-03-30T16:52:42.464Z,6.18
2023-03-30T16:54:47.536Z,6.07
2023-03-30T16:56:55.018Z,4.13
2023-03-30T16:59:02.394Z,5.32
2023-03-30T17:01:07.992Z,4.07
2023-03-30T17:03:13.341Z,8.30
2023-03-30T17:07:29.016Z,4.75
2023-03-30T17:11:38.533Z,5.72
2023-03-30T17:13:43.798Z,4.82
2023-03-30T17:17:54.550Z,6.20
2023-03-30T17:20:00.065Z,4.57
2023-03-30T17:22:07.704Z,7.40
2023-03-30T17:24:19.464Z,6.70
2023-03-30T17:26:25.158Z,7.28
2023-03-30T17:28:31.925Z,8.10
2023-03-30T17:30:40.423Z,6.90
2023-03-30T17:32:45.598Z,3.90
2023-03-30T17:34:51.836Z,5.18
2023-03-30T17:36:56.809Z,7.60
2023-03-30T17:39:05.291Z,4.28
2023-03-30T17:41:13.401Z,5.40
2023-03-30T17:43:20.692Z,4.60
2023-03-30T17:45:29.485Z,4.25
2023-03-30T17:47:34.391Z,6.00
2023-03-30T17:49:39.569Z,4.25
2023-03-30T17:53:49.239Z,3.88
2023-03-30T17:55:56.815Z,4.00
2023-03-30T17:58:02.513Z,3.42
2023-03-30T18:00:15.465Z,3.22
2023-03-30T18:02:20.471Z,3.92
2023-03-30T18:04:25.452Z,4.68
2023-03-30T18:06:30.502Z,2.50
2023-03-30T18:08:36.287Z,5.25
2023-03-30T18:10:42.855Z,3.85
2023-03-30T18:12:52.472Z,5.55
2023-03-30T18:14:57.424Z,6.07
2023-03-30T18:17:06.729Z,6.15
2023-03-30T18:19:13.523Z,3.50
2023-03-30T18:21:18.512Z,5.65
2023-03-30T18:23:23.764Z,4.57
2023-03-30T18:27:37.796Z,11.93
2023-03-30T18:29:45.329Z,8.65
2023-03-30T18:31:50.484Z,8.25
2023-03-30T18:36:05.485Z,5.70
2023-03-30T18:38:10.645Z,4.47
2023-03-30T18:40:21.805Z,5.85
2023-03-30T18:42:26.690Z,8.75
2023-03-30T18:44:31.720Z,6.47
2023-03-30T18:46:40.031Z,5.25
2023-03-30T18:48:45.174Z,6.72
2023-03-30T18:50:51.552Z,5.65
2023-03-30T18:52:56.502Z,6.20
2023-03-30T18:55:01.537Z,6.93
2023-03-30T18:57:06.588Z,6.70
2023-03-30T18:59:13.315Z,8.43
2023-03-30T19:01:20.892Z,8.13
2023-03-30T19:03:30.385Z,8.20
2023-03-30T19:05:39.266Z,7.22
2023-03-30T19:07:44.198Z,8.05
2023-03-30T19:09:49.435Z,6.18
2023-03-30T19:14:00.621Z,5.18
2023-03-30T19:16:06.195Z,7.47
2023-03-30T19:18:11.647Z,5.30
2023-03-30T19:20:20.010Z,4.43
2023-03-30T19:22:25.017Z,8.52
2023-03-30T19:24:29.996Z,6.50
2023-03-30T19:26:35.418Z,6.32
2023-03-30T19:28:40.579Z,5.28
2023-03-30T19:30:46.890Z,5.18
2023-03-30T19:32:53.173Z,6.88
2023-03-30T19:34:58.908Z,5.10
2023-03-30T19:37:07.060Z,8.32
2023-03-30T19:39:14.491Z,4.55
2023-03-30T19:41:22.138Z,6.75
2023-03-30T19:43:27.165Z,6.25
2023-03-30T19:45:32.052Z,5.32
2023-03-30T19:47:37.422Z,5.50
2023-03-30T19:49:42.395Z,7.57
2023-03-30T19:51:48.113Z,4.05
2023-03-30T19:53:57.165Z,3.67
2023-03-30T19:56:02.080Z,4.97
2023-03-30T19:58:07.040Z,4.50
2023-03-30T20:00:16.099Z,5.32
2023-03-30T20:02:21.576Z,4.10
2023-03-30T20:04:26.526Z,3.15
2023-03-30T20:06:32.327Z,5.72
2023-03-30T20:08:37.790Z,4.40
2023-03-30T20:10:50.182Z,3.40
2023-03-30T20:12:56.826Z,4.03
2023-03-30T20:15:01.764Z,4.72
2023-03-30T20:17:10.379Z,4.57
2023-03-30T20:19:28.990Z,7.85
2023-03-30T20:21:34.962Z,5.88
2023-03-30T20:23:39.877Z,4.95
2023-03-30T20:25:52.749Z,8.02
2023-03-30T20:27:57.655Z,5.72
2023-03-30T20:30:02.614Z,5.65
2023-03-30T20:32:07.873Z,4.60
2023-03-30T20:34:14.724Z,6.47
2023-03-30T20:36:19.749Z,5.72
2023-03-30T20:40:29.578Z,8.52
2023-03-30T20:42:40.139Z,5.20
2023-03-30T20:44:50.588Z,5.63
2023-03-30T20:46:58.156Z,4.60
2023-03-30T20:49:03.029Z,4.38
2023-03-30T20:51:09.448Z,5.97
2023-03-30T20:53:14.288Z,6.43
2023-03-30T20:55:21.320Z,6.60
2023-03-30T20:57:27.472Z,6.38
2023-03-30T20:59:35.208Z,5.03
2023-03-30T21:01:41.163Z,4.30
2023-03-30T21:03:50.187Z,6.22
2023-03-30T21:06:02.570Z,6.80
2023-03-30T21:08:07.957Z,7.30
2023-03-30T21:10:13.062Z,5.63
2023-03-30T21:12:18.019Z,4.97
2023-03-30T21:14:24.328Z,8.32
2023-03-30T21:16:31.906Z,5.43
2023-03-30T21:18:37.867Z,7.10
2023-03-30T21:20:42.829Z,4.13
2023-03-30T21:22:47.815Z,3.45
2023-03-30T21:24:54.375Z,5.97
2023-03-30T21:26:59.558Z,4.05
2023-03-30T21:31:11.010Z,4.55
2023-03-30T21:33:19.191Z,5.50
2023-03-30T21:35:24.066Z,4.05
2023-03-30T21:37:29.017Z,4.30
2023-03-30T21:39:33.940Z,6.60
2023-03-30T21:41:38.806Z,3.28
2023-03-30T21:43:45.779Z,3.17
2023-03-30T21:45:54.997Z,3.72
2023-03-30T21:47:59.987Z,3.00
2023-03-30T21:50:08.840Z,3.95
2023-03-30T21:52:13.769Z,3.70
2023-03-30T21:54:19.582Z,4.55
2023-03-30T21:56:26.074Z,5.75
2023-03-30T21:58:31.350Z,3.95
2023-03-30T22:02:41.095Z,6.63
2023-03-30T22:06:53.701Z,4.60
2023-03-30T22:08:58.648Z,6.07
2023-03-30T22:11:05.393Z,4.45
2023-03-30T22:13:13.748Z,7.68
2023-03-30T22:15:19.746Z,3.85
2023-03-30T22:17:41.969Z,5.68
2023-03-30T22:19:47.034Z,6.13
2023-03-30T22:21:54.855Z,10.48
2023-03-30T22:23:59.869Z,3.75
2023-03-30T22:26:05.090Z,4.57
2023-03-30T22:28:12.140Z,5.90
2023-03-30T22:30:17.502Z,3.03
2023-03-30T22:32:22.880Z,3.00
2023-03-30T22:34:28.721Z,5.45
2023-03-30T22:36:34.117Z,7.82
2023-03-30T22:38:44.344Z,5.65
2023-03-30T22:40:49.418Z,4.82
2023-03-30T22:44:59.069Z,5.32
2023-03-30T22:47:03.981Z,5.78
2023-03-30T22:49:09.873Z,7.93
2023-03-30T22:51:26.948Z,4.63
2023-03-30T22:53:32.500Z,6.53
2023-03-30T22:55:40.043Z,5.95
2023-03-30T22:57:45.054Z,6.65
2023-03-30T22:59:49.904Z,10.32
2023-03-30T23:01:55.111Z,4.93
2023-03-30T23:03:59.998Z,7.05
2023-03-30T23:06:05.585Z,5.93
2023-03-30T23:08:12.672Z,5.75
2023-03-30T23:10:19.909Z,5.90
2023-03-30T23:12:27.471Z,5.38
2023-03-30T23:14:32.513Z,3.10
2023-03-30T23:16:37.961Z,5.95
2023-03-30T23:18:42.919Z,3.78
2023-03-30T23:20:48.116Z,6.60
2023-03-30T23:22:53.150Z,5.38
2023-03-30T23:24:58.257Z,5.68
2023-03-30T23:27:03.139Z,5.28
2023-03-30T23:29:11.531Z,4.78
2023-03-30T23:31:19.150Z,4.25
2023-03-30T23:33:24.500Z,2.50
2023-03-30T23:37:34.280Z,4.97
2023-03-30T23:39:39.308Z,4.82
2023-03-30T23:41:45.692Z,4.18
2023-03-30T23:43:51.643Z,6.28
2023-03-30T23:45:59.271Z,4.43
2023-03-30T23:48:04.235Z,5.80
2023-03-30T23:50:10.807Z,3.65
2023-03-30T23:52:16.153Z,3.33
2023-03-30T23:54:21.485Z,4.63
